sensor_id;sensor_type;location;lat;lon;timestamp;pressure;altitude;pressure_sealevel;temperature;humidity
26531;BME280;14201;43.188;24.160;2023-05-09T00:02:05;100110.59;;;13.03;100.00
26531;BME280;14201;43.188;24.160;2023-05-09T00:04:30;100110.34;;;12.96;100.00
26531;BME280;14201;43.188;24.160;2023-05-09T00:06:56;100110.50;;;12.99;100.00
26531;BME280;14201;43.188;24.160;2023-05-09T00:09:22;100109.91;;;13.07;100.00
26531;BME280;14201;43.188;24.160;2023-05-09T00:11:47;100110.56;;;13.01;100.00
26531;BME280;14201;43.188;24.160;2023-05-09T00:14:13;100109.78;;;13.04;100.00
26531;BME280;14201;43.188;24.160;2023-05-09T00:16:38;100107.38;;;12.87;100.00
26531;BME280;14201;43.188;24.160;2023-05-09T00:19:07;100107.38;;;12.87;100.00
26531;BME280;14201;43.188;24.160;2023-05-09T00:21:32;100104.16;;;12.94;100.00
26531;BME280;14201;43.188;24.160;2023-05-09T00:23:58;100118.44;;;13.03;100.00
26531;BME280;14201;43.188;24.160;2023-05-09T00:26:24;100115.41;;;12.92;100.00
26531;BME280;14201;43.188;24.160;2023-05-09T00:28:50;100108.59;;;12.95;100.00
26531;BME280;14201;43.188;24.160;2023-05-09T00:31:16;100118.06;;;13.14;100.00
26531;BME280;14201;43.188;24.160;2023-05-09T00:33:41;100109.38;;;12.72;100.00
26531;BME280;14201;43.188;24.160;2023-05-09T00:36:06;100112.00;;;12.72;100.00
26531;BME280;14201;43.188;24.160;2023-05-09T00:38:32;100110.19;;;12.71;100.00
26531;BME280;14201;43.188;24.160;2023-05-09T00:40:57;100111.78;;;12.67;100.00
26531;BME280;14201;43.188;24.160;2023-05-09T00:43:23;100120.66;;;12.71;100.00
26531;BME280;14201;43.188;24.160;2023-05-09T00:45:48;100111.91;;;12.49;100.00
26531;BME280;14201;43.188;24.160;2023-05-09T00:48:14;100117.47;;;12.57;100.00
26531;BME280;14201;43.188;24.160;2023-05-09T00:50:40;100110.31;;;12.53;100.00
26531;BME280;14201;43.188;24.160;2023-05-09T00:53:06;100113.13;;;12.57;100.00
26531;BME280;14201;43.188;24.160;2023-05-09T00:55:32;100115.63;;;12.54;100.00
26531;BME280;14201;43.188;24.160;2023-05-09T00:57:58;100120.06;;;12.57;100.00
26531;BME280;14201;43.188;24.160;2023-05-09T01:00:23;100119.91;;;12.52;100.00
26531;BME280;14201;43.188;24.160;2023-05-09T01:02:54;100115.81;;;12.59;100.00
26531;BME280;14201;43.188;24.160;2023-05-09T01:05:19;100123.81;;;12.64;100.00
26531;BME280;14201;43.188;24.160;2023-05-09T01:07:53;100119.84;;;12.72;100.00
26531;BME280;14201;43.188;24.160;2023-05-09T01:18:28;100134.97;;;13.02;100.00
26531;BME280;14201;43.188;24.160;2023-05-09T01:20:56;100135.22;;;13.08;100.00
26531;BME280;14201;43.188;24.160;2023-05-09T01:28:47;100133.19;;;13.44;97.11
26531;BME280;14201;43.188;24.160;2023-05-09T01:31:05;100128.53;;;13.37;97.98
26531;BME280;14201;43.188;24.160;2023-05-09T01:33:32;100132.03;;;13.37;97.11
26531;BME280;14201;43.188;24.160;2023-05-09T01:36:00;100125.94;;;13.37;97.76
26531;BME280;14201;43.188;24.160;2023-05-09T01:38:28;100130.38;;;13.39;96.43
26531;BME280;14201;43.188;24.160;2023-05-09T01:40:55;100133.19;;;13.44;96.36
26531;BME280;14201;43.188;24.160;2023-05-09T01:43:24;100128.97;;;13.48;94.98
26531;BME280;14201;43.188;24.160;2023-05-09T01:45:51;100131.38;;;13.42;94.51
26531;BME280;14201;43.188;24.160;2023-05-09T01:48:17;100134.88;;;13.42;95.73
26531;BME280;14201;43.188;24.160;2023-05-09T01:50:45;100129.94;;;13.50;95.44
26531;BME280;14201;43.188;24.160;2023-05-09T01:53:11;100132.31;;;13.44;96.52
26531;BME280;14201;43.188;24.160;2023-05-09T01:55:38;100135.16;;;13.50;96.24
26531;BME280;14201;43.188;24.160;2023-05-09T01:58:05;100134.78;;;13.41;94.87
26531;BME280;14201;43.188;24.160;2023-05-09T02:00:31;100143.31;;;13.14;95.77
26531;BME280;14201;43.188;24.160;2023-05-09T02:02:57;100132.59;;;13.08;96.84
26531;BME280;14201;43.188;24.160;2023-05-09T02:05:27;100138.56;;;12.83;96.34
26531;BME280;14201;43.188;24.160;2023-05-09T02:07:54;100143.69;;;12.60;98.00
26531;BME280;14201;43.188;24.160;2023-05-09T02:10:21;100145.88;;;12.49;98.57
26531;BME280;14201;43.188;24.160;2023-05-09T02:12:46;100140.63;;;12.28;100.00
26531;BME280;14201;43.188;24.160;2023-05-09T02:15:12;100138.16;;;12.31;100.00
26531;BME280;14201;43.188;24.160;2023-05-09T02:17:37;100142.47;;;12.31;100.00
26531;BME280;14201;43.188;24.160;2023-05-09T02:20:03;100133.75;;;12.30;100.00
26531;BME280;14201;43.188;24.160;2023-05-09T02:22:29;100139.84;;;12.31;100.00
26531;BME280;14201;43.188;24.160;2023-05-09T02:24:55;100138.09;;;12.30;100.00
26531;BME280;14201;43.188;24.160;2023-05-09T02:27:20;100150.28;;;12.31;100.00
26531;BME280;14201;43.188;24.160;2023-05-09T02:29:47;100145.63;;;12.43;99.84
26531;BME280;14201;43.188;24.160;2023-05-09T02:32:15;100142.41;;;12.50;99.37
26531;BME280;14201;43.188;24.160;2023-05-09T02:34:41;100148.63;;;12.52;99.02
26531;BME280;14201;43.188;24.160;2023-05-09T02:37:07;100154.94;;;12.57;98.79
26531;BME280;14201;43.188;24.160;2023-05-09T02:39:33;100157.44;;;12.54;99.00
26531;BME280;14201;43.188;24.160;2023-05-09T02:42:06;100155.31;;;12.46;99.99
26531;BME280;14201;43.188;24.160;2023-05-09T02:44:32;100154.56;;;12.09;100.00
26531;BME280;14201;43.188;24.160;2023-05-09T02:46:57;100156.66;;;12.16;100.00
26531;BME280;14201;43.188;24.160;2023-05-09T02:49:23;100155.59;;;12.32;100.00
26531;BME280;14201;43.188;24.160;2023-05-09T02:51:48;100155.56;;;12.52;98.95
26531;BME280;14201;43.188;24.160;2023-05-09T02:54:14;100152.50;;;12.41;98.93
26531;BME280;14201;43.188;24.160;2023-05-09T02:56:39;100156.63;;;12.36;99.98
26531;BME280;14201;43.188;24.160;2023-05-09T02:59:05;100154.03;;;12.57;99.29
26531;BME280;14201;43.188;24.160;2023-05-09T03:01:30;100155.44;;;12.49;97.65
26531;BME280;14201;43.188;24.160;2023-05-09T03:03:56;100165.34;;;12.36;98.15
26531;BME280;14201;43.188;24.160;2023-05-09T03:06:21;100157.94;;;12.26;98.52
26531;BME280;14201;43.188;24.160;2023-05-09T03:08:46;100172.50;;;12.01;98.28
26531;BME280;14201;43.188;24.160;2023-05-09T03:11:12;100166.00;;;11.74;98.56
26531;BME280;14201;43.188;24.160;2023-05-09T03:13:37;100169.84;;;11.62;100.00
26531;BME280;14201;43.188;24.160;2023-05-09T03:16:03;100173.22;;;11.60;99.83
26531;BME280;14201;43.188;24.160;2023-05-09T03:18:29;100169.09;;;11.65;100.00
26531;BME280;14201;43.188;24.160;2023-05-09T03:20:54;100176.63;;;11.59;99.75
26531;BME280;14201;43.188;24.160;2023-05-09T03:23:20;100180.47;;;11.48;100.00
26531;BME280;14201;43.188;24.160;2023-05-09T03:25:45;100176.44;;;11.36;100.00
26531;BME280;14201;43.188;24.160;2023-05-09T03:28:11;100183.06;;;11.30;100.00
26531;BME280;14201;43.188;24.160;2023-05-09T03:30:36;100185.59;;;11.10;100.00
26531;BME280;14201;43.188;24.160;2023-05-09T03:33:01;100186.94;;;11.20;100.00
26531;BME280;14201;43.188;24.160;2023-05-09T03:35:29;100199.41;;;11.26;100.00
26531;BME280;14201;43.188;24.160;2023-05-09T03:37:54;100196.03;;;11.28;100.00
26531;BME280;14201;43.188;24.160;2023-05-09T03:40:20;100198.03;;;11.34;100.00
26531;BME280;14201;43.188;24.160;2023-05-09T03:42:45;100194.09;;;11.24;100.00
26531;BME280;14201;43.188;24.160;2023-05-09T03:45:10;100202.38;;;11.33;100.00
26531;BME280;14201;43.188;24.160;2023-05-09T03:47:36;100205.63;;;11.47;100.00
26531;BME280;14201;43.188;24.160;2023-05-09T03:50:01;100212.34;;;11.60;100.00
26531;BME280;14201;43.188;24.160;2023-05-09T03:52:28;100209.06;;;11.64;99.27
26531;BME280;14201;43.188;24.160;2023-05-09T03:54:53;100206.81;;;11.72;100.00
26531;BME280;14201;43.188;24.160;2023-05-09T03:57:19;100211.34;;;11.76;97.74
26531;BME280;14201;43.188;24.160;2023-05-09T03:59:44;100208.53;;;11.71;98.50
26531;BME280;14201;43.188;24.160;2023-05-09T04:02:10;100218.66;;;11.83;99.61
26531;BME280;14201;43.188;24.160;2023-05-09T04:04:35;100215.53;;;11.72;98.94
26531;BME280;14201;43.188;24.160;2023-05-09T04:07:01;100222.44;;;11.90;96.04
26531;BME280;14201;43.188;24.160;2023-05-09T04:09:26;100222.72;;;11.96;96.23
26531;BME280;14201;43.188;24.160;2023-05-09T04:11:53;100230.81;;;11.82;95.77
26531;BME280;14201;43.188;24.160;2023-05-09T04:14:18;100228.56;;;11.90;96.33
26531;BME280;14201;43.188;24.160;2023-05-09T04:16:43;100227.75;;;11.91;96.78
26531;BME280;14201;43.188;24.160;2023-05-09T04:19:11;100237.72;;;11.82;96.15
26531;BME280;14201;43.188;24.160;2023-05-09T04:21:39;100233.53;;;11.86;97.17
26531;BME280;14201;43.188;24.160;2023-05-09T04:24:04;100235.50;;;11.90;95.73
26531;BME280;14201;43.188;24.160;2023-05-09T04:26:30;100243.97;;;11.86;95.95
26531;BME280;14201;43.188;24.160;2023-05-09T04:28:55;100243.09;;;11.85;97.34
26531;BME280;14201;43.188;24.160;2023-05-09T04:31:21;100240.56;;;11.87;98.85
26531;BME280;14201;43.188;24.160;2023-05-09T04:33:47;100240.47;;;12.03;97.69
26531;BME280;14201;43.188;24.160;2023-05-09T04:36:12;100240.06;;;12.13;97.81
26531;BME280;14201;43.188;24.160;2023-05-09T04:38:37;100239.44;;;12.19;96.71
26531;BME280;14201;43.188;24.160;2023-05-09T04:41:03;100244.13;;;12.26;95.22
26531;BME280;14201;43.188;24.160;2023-05-09T04:43:28;100245.78;;;12.24;96.13
26531;BME280;14201;43.188;24.160;2023-05-09T04:45:55;100243.38;;;12.29;95.14
26531;BME280;14201;43.188;24.160;2023-05-09T04:48:20;100244.06;;;12.25;94.87
26531;BME280;14201;43.188;24.160;2023-05-09T04:50:46;100249.38;;;12.26;95.13
26531;BME280;14201;43.188;24.160;2023-05-09T04:53:12;100241.69;;;12.29;94.24
26531;BME280;14201;43.188;24.160;2023-05-09T04:55:38;100248.06;;;12.36;94.41
26531;BME280;14201;43.188;24.160;2023-05-09T04:58:03;100247.50;;;12.43;93.55
26531;BME280;14201;43.188;24.160;2023-05-09T05:00:31;100247.78;;;12.30;92.81
26531;BME280;14201;43.188;24.160;2023-05-09T05:02:57;100254.13;;;12.35;94.40
26531;BME280;14201;43.188;24.160;2023-05-09T05:05:22;100251.63;;;12.38;94.79
26531;BME280;14201;43.188;24.160;2023-05-09T05:07:48;100257.03;;;12.43;94.91
26531;BME280;14201;43.188;24.160;2023-05-09T05:10:13;100256.03;;;12.39;94.20
26531;BME280;14201;43.188;24.160;2023-05-09T05:12:38;100260.69;;;12.46;93.75
26531;BME280;14201;43.188;24.160;2023-05-09T05:15:05;100261.81;;;12.51;93.22
26531;BME280;14201;43.188;24.160;2023-05-09T05:17:30;100266.06;;;12.49;93.82
26531;BME280;14201;43.188;24.160;2023-05-09T05:19:56;100264.84;;;12.41;94.04
26531;BME280;14201;43.188;24.160;2023-05-09T05:22:21;100262.34;;;12.44;94.67
26531;BME280;14201;43.188;24.160;2023-05-09T05:24:47;100265.09;;;12.47;94.96
26531;BME280;14201;43.188;24.160;2023-05-09T05:27:12;100268.59;;;12.48;93.20
26531;BME280;14201;43.188;24.160;2023-05-09T05:29:38;100256.56;;;12.51;94.94
26531;BME280;14201;43.188;24.160;2023-05-09T05:32:03;100255.00;;;12.35;91.42
26531;BME280;14201;43.188;24.160;2023-05-09T05:34:29;100258.75;;;12.03;92.69
26531;BME280;14201;43.188;24.160;2023-05-09T05:36:54;100259.81;;;11.89;94.06
26531;BME280;14201;43.188;24.160;2023-05-09T05:39:20;100265.63;;;12.01;95.70
26531;BME280;14201;43.188;24.160;2023-05-09T05:41:45;100266.75;;;12.06;96.77
26531;BME280;14201;43.188;24.160;2023-05-09T05:44:11;100267.22;;;12.17;97.70
26531;BME280;14201;43.188;24.160;2023-05-09T05:46:36;100277.66;;;12.17;97.75
26531;BME280;14201;43.188;24.160;2023-05-09T05:49:02;100282.00;;;12.16;95.01
26531;BME280;14201;43.188;24.160;2023-05-09T05:51:27;100275.97;;;12.17;94.88
26531;BME280;14201;43.188;24.160;2023-05-09T05:53:52;100284.69;;;12.18;96.71
26531;BME280;14201;43.188;24.160;2023-05-09T05:56:18;100287.78;;;12.29;97.23
26531;BME280;14201;43.188;24.160;2023-05-09T05:58:43;100283.81;;;12.37;97.56
26531;BME280;14201;43.188;24.160;2023-05-09T06:01:09;100286.81;;;12.46;96.13
26531;BME280;14201;43.188;24.160;2023-05-09T06:03:34;100282.03;;;11.98;93.22
26531;BME280;14201;43.188;24.160;2023-05-09T06:05:59;100295.06;;;11.80;95.66
26531;BME280;14201;43.188;24.160;2023-05-09T06:08:25;100297.09;;;11.68;96.38
26531;BME280;14201;43.188;24.160;2023-05-09T06:10:50;100296.81;;;11.62;97.28
26531;BME280;14201;43.188;24.160;2023-05-09T06:13:16;100294.03;;;11.59;98.02
26531;BME280;14201;43.188;24.160;2023-05-09T06:15:41;100294.63;;;11.35;98.12
26531;BME280;14201;43.188;24.160;2023-05-09T06:18:07;100285.31;;;11.40;98.30
26531;BME280;14201;43.188;24.160;2023-05-09T06:20:33;100298.06;;;11.34;98.09
26531;BME280;14201;43.188;24.160;2023-05-09T06:22:59;100293.16;;;11.40;98.38
26531;BME280;14201;43.188;24.160;2023-05-09T06:25:25;100301.28;;;11.47;97.97
26531;BME280;14201;43.188;24.160;2023-05-09T06:27:50;100300.47;;;11.48;99.41
26531;BME280;14201;43.188;24.160;2023-05-09T06:30:16;100299.25;;;11.41;97.78
26531;BME280;14201;43.188;24.160;2023-05-09T06:32:41;100293.81;;;11.36;99.65
26531;BME280;14201;43.188;24.160;2023-05-09T06:35:08;100288.72;;;11.39;100.00
26531;BME280;14201;43.188;24.160;2023-05-09T06:37:33;100297.47;;;11.40;98.71
26531;BME280;14201;43.188;24.160;2023-05-09T06:39:59;100302.69;;;11.58;100.00
26531;BME280;14201;43.188;24.160;2023-05-09T06:42:24;100303.53;;;11.75;100.00
26531;BME280;14201;43.188;24.160;2023-05-09T06:44:50;100302.09;;;11.81;100.00
26531;BME280;14201;43.188;24.160;2023-05-09T06:47:16;100309.94;;;11.63;97.40
26531;BME280;14201;43.188;24.160;2023-05-09T06:49:41;100303.19;;;11.69;100.00
26531;BME280;14201;43.188;24.160;2023-05-09T06:52:06;100305.59;;;11.64;99.10
26531;BME280;14201;43.188;24.160;2023-05-09T06:54:32;100303.97;;;11.66;100.00
26531;BME280;14201;43.188;24.160;2023-05-09T06:56:57;100303.13;;;11.85;99.76
26531;BME280;14201;43.188;24.160;2023-05-09T06:59:23;100301.72;;;11.92;95.57
26531;BME280;14201;43.188;24.160;2023-05-09T07:01:49;100301.41;;;12.04;94.91
26531;BME280;14201;43.188;24.160;2023-05-09T07:04:14;100302.94;;;11.98;96.42
26531;BME280;14201;43.188;24.160;2023-05-09T07:06:40;100306.63;;;12.04;94.96
26531;BME280;14201;43.188;24.160;2023-05-09T07:09:05;100304.94;;;12.04;95.79
26531;BME280;14201;43.188;24.160;2023-05-09T07:11:34;100300.09;;;11.94;95.10
26531;BME280;14201;43.188;24.160;2023-05-09T07:14:00;100303.56;;;11.76;96.14
26531;BME280;14201;43.188;24.160;2023-05-09T07:16:26;100304.72;;;11.63;96.16
26531;BME280;14201;43.188;24.160;2023-05-09T07:18:53;100305.59;;;11.64;96.85
26531;BME280;14201;43.188;24.160;2023-05-09T07:21:19;100310.50;;;11.76;98.01
26531;BME280;14201;43.188;24.160;2023-05-09T07:23:44;100308.59;;;11.72;97.71
26531;BME280;14201;43.188;24.160;2023-05-09T07:26:09;100303.19;;;11.33;97.10
26531;BME280;14201;43.188;24.160;2023-05-09T07:28:35;100305.22;;;11.38;100.00
26531;BME280;14201;43.188;24.160;2023-05-09T07:31:00;100309.19;;;11.48;97.62
26531;BME280;14201;43.188;24.160;2023-05-09T07:33:26;100307.81;;;11.38;98.29
26531;BME280;14201;43.188;24.160;2023-05-09T07:35:51;100303.66;;;11.42;99.58
26531;BME280;14201;43.188;24.160;2023-05-09T07:38:17;100309.91;;;11.46;99.81
26531;BME280;14201;43.188;24.160;2023-05-09T07:40:42;100310.66;;;11.61;98.56
26531;BME280;14201;43.188;24.160;2023-05-09T07:43:08;100308.41;;;11.51;98.46
26531;BME280;14201;43.188;24.160;2023-05-09T07:45:33;100314.09;;;11.60;99.71
26531;BME280;14201;43.188;24.160;2023-05-09T07:47:59;100314.09;;;11.78;99.78
26531;BME280;14201;43.188;24.160;2023-05-09T07:50:24;100315.13;;;11.81;100.00
26531;BME280;14201;43.188;24.160;2023-05-09T07:52:50;100315.38;;;12.04;100.00
26531;BME280;14201;43.188;24.160;2023-05-09T07:55:16;100309.84;;;12.16;95.37
26531;BME280;14201;43.188;24.160;2023-05-09T07:57:42;100309.91;;;12.17;96.72
26531;BME280;14201;43.188;24.160;2023-05-09T08:00:07;100319.13;;;12.29;93.47
26531;BME280;14201;43.188;24.160;2023-05-09T08:02:34;100319.13;;;12.29;93.89
26531;BME280;14201;43.188;24.160;2023-05-09T08:05:00;100317.53;;;12.13;96.56
26531;BME280;14201;43.188;24.160;2023-05-09T08:07:25;100319.28;;;12.32;97.11
26531;BME280;14201;43.188;24.160;2023-05-09T08:09:50;100323.19;;;12.22;93.93
26531;BME280;14201;43.188;24.160;2023-05-09T08:12:16;100320.28;;;12.16;93.13
26531;BME280;14201;43.188;24.160;2023-05-09T08:14:41;100325.03;;;12.25;94.80
26531;BME280;14201;43.188;24.160;2023-05-09T08:17:07;100322.53;;;12.08;94.52
26531;BME280;14201;43.188;24.160;2023-05-09T08:19:32;100334.84;;;12.11;96.43
26531;BME280;14201;43.188;24.160;2023-05-09T08:21:57;100334.47;;;12.03;95.44
26531;BME280;14201;43.188;24.160;2023-05-09T08:24:23;100331.72;;;12.00;97.13
26531;BME280;14201;43.188;24.160;2023-05-09T08:26:49;100329.56;;;11.91;96.23
26531;BME280;14201;43.188;24.160;2023-05-09T08:29:14;100334.03;;;11.94;95.84
26531;BME280;14201;43.188;24.160;2023-05-09T08:31:40;100336.50;;;11.91;96.10
26531;BME280;14201;43.188;24.160;2023-05-09T08:34:06;100325.41;;;11.78;99.19
26531;BME280;14201;43.188;24.160;2023-05-09T08:36:31;100323.94;;;11.83;97.59
26531;BME280;14201;43.188;24.160;2023-05-09T08:38:57;100326.75;;;11.88;98.22
26531;BME280;14201;43.188;24.160;2023-05-09T08:41:25;100321.88;;;11.94;97.79
26531;BME280;14201;43.188;24.160;2023-05-09T08:43:52;100314.09;;;11.78;96.12
26531;BME280;14201;43.188;24.160;2023-05-09T08:46:17;100318.03;;;11.88;97.78
26531;BME280;14201;43.188;24.160;2023-05-09T08:48:46;100316.31;;;11.88;96.45
26531;BME280;14201;43.188;24.160;2023-05-09T08:51:12;100326.06;;;11.91;96.36
26531;BME280;14201;43.188;24.160;2023-05-09T08:53:38;100330.59;;;11.95;95.45
26531;BME280;14201;43.188;24.160;2023-05-09T08:56:03;100327.38;;;11.82;96.36
26531;BME280;14201;43.188;24.160;2023-05-09T08:58:29;100336.78;;;11.97;97.07
26531;BME280;14201;43.188;24.160;2023-05-09T09:00:55;100338.66;;;11.99;95.13
26531;BME280;14201;43.188;24.160;2023-05-09T09:03:20;100332.63;;;12.00;95.61
26531;BME280;14201;43.188;24.160;2023-05-09T09:05:47;100332.59;;;11.82;95.03
26531;BME280;14201;43.188;24.160;2023-05-09T09:08:13;100335.25;;;11.84;95.55
26531;BME280;14201;43.188;24.160;2023-05-09T09:10:40;100337.56;;;11.78;96.83
26531;BME280;14201;43.188;24.160;2023-05-09T09:13:12;100333.03;;;11.74;96.70
26531;BME280;14201;43.188;24.160;2023-05-09T09:15:37;100336.41;;;11.71;97.21
26531;BME280;14201;43.188;24.160;2023-05-09T09:18:05;100339.91;;;11.72;97.63
26531;BME280;14201;43.188;24.160;2023-05-09T09:20:33;100342.03;;;11.80;97.10
26531;BME280;14201;43.188;24.160;2023-05-09T09:22:59;100338.16;;;11.72;96.74
26531;BME280;14201;43.188;24.160;2023-05-09T09:25:28;100337.97;;;11.68;97.75
26531;BME280;14201;43.188;24.160;2023-05-09T09:27:54;100343.69;;;11.60;98.21
26531;BME280;14201;43.188;24.160;2023-05-09T09:30:21;100335.72;;;11.75;99.03
26531;BME280;14201;43.188;24.160;2023-05-09T09:32:47;100335.41;;;11.87;95.59
26531;BME280;14201;43.188;24.160;2023-05-09T09:35:12;100338.56;;;11.98;96.85
26531;BME280;14201;43.188;24.160;2023-05-09T09:37:38;100337.84;;;12.00;97.61
26531;BME280;14201;43.188;24.160;2023-05-09T09:40:06;100342.47;;;12.06;96.19
26531;BME280;14201;43.188;24.160;2023-05-09T09:42:41;100338.88;;;12.04;95.12
26531;BME280;14201;43.188;24.160;2023-05-09T09:45:11;100337.38;;;12.09;98.11
26531;BME280;14201;43.188;24.160;2023-05-09T09:47:37;100332.13;;;12.27;99.21
26531;BME280;14201;43.188;24.160;2023-05-09T09:50:15;100334.06;;;12.31;94.17
26531;BME280;14201;43.188;24.160;2023-05-09T09:52:42;100336.72;;;12.33;95.07
26531;BME280;14201;43.188;24.160;2023-05-09T09:55:08;100329.28;;;12.23;95.38
26531;BME280;14201;43.188;24.160;2023-05-09T09:57:34;100340.66;;;12.05;94.57
26531;BME280;14201;43.188;24.160;2023-05-09T10:00:01;100338.53;;;11.96;95.90
26531;BME280;14201;43.188;24.160;2023-05-09T10:02:26;100336.59;;;11.92;98.36
26531;BME280;14201;43.188;24.160;2023-05-09T10:04:51;100340.72;;;11.89;97.56
26531;BME280;14201;43.188;24.160;2023-05-09T10:07:17;100339.84;;;12.06;98.60
26531;BME280;14201;43.188;24.160;2023-05-09T10:09:43;100341.19;;;11.98;97.20
26531;BME280;14201;43.188;24.160;2023-05-09T10:12:09;100338.69;;;12.19;97.57
26531;BME280;14201;43.188;24.160;2023-05-09T10:14:36;100336.44;;;12.27;96.41
26531;BME280;14201;43.188;24.160;2023-05-09T10:17:03;100338.81;;;12.40;93.84
26531;BME280;14201;43.188;24.160;2023-05-09T10:19:29;100338.38;;;12.31;94.96
26531;BME280;14201;43.188;24.160;2023-05-09T10:22:02;100338.72;;;12.38;93.15
26531;BME280;14201;43.188;24.160;2023-05-09T10:24:47;100338.13;;;12.44;94.91
26531;BME280;14201;43.188;24.160;2023-05-09T10:27:17;100333.72;;;12.43;93.38
26531;BME280;14201;43.188;24.160;2023-05-09T10:29:44;100332.06;;;12.26;95.16
26531;BME280;14201;43.188;24.160;2023-05-09T10:32:31;100329.56;;;12.29;94.35
26531;BME280;14201;43.188;24.160;2023-05-09T10:34:57;100325.78;;;12.22;95.43
26531;BME280;14201;43.188;24.160;2023-05-09T10:37:26;100335.13;;;11.81;95.37
26531;BME280;14201;43.188;24.160;2023-05-09T10:39:52;100328.03;;;11.78;98.14
26531;BME280;14201;43.188;24.160;2023-05-09T10:42:18;100321.41;;;11.67;98.78
26531;BME280;14201;43.188;24.160;2023-05-09T10:44:45;100321.84;;;11.76;100.00
26531;BME280;14201;43.188;24.160;2023-05-09T10:47:11;100324.78;;;11.82;100.00
26531;BME280;14201;43.188;24.160;2023-05-09T10:49:37;100323.94;;;11.83;99.77
26531;BME280;14201;43.188;24.160;2023-05-09T10:52:03;100329.75;;;11.78;97.30
26531;BME280;14201;43.188;24.160;2023-05-09T10:54:29;100323.28;;;11.70;97.52
26531;BME280;14201;43.188;24.160;2023-05-09T10:56:58;100328.28;;;11.83;100.00
26531;BME280;14201;43.188;24.160;2023-05-09T11:01:58;100336.81;;;11.80;98.23
26531;BME280;14201;43.188;24.160;2023-05-09T11:04:31;100319.78;;;11.69;97.85
26531;BME280;14201;43.188;24.160;2023-05-09T11:06:57;100323.28;;;11.70;97.76
26531;BME280;14201;43.188;24.160;2023-05-09T11:11:53;100336.81;;;11.80;97.31
26531;BME280;14201;43.188;24.160;2023-05-09T11:22:14;100341.44;;;11.86;97.47
26531;BME280;14201;43.188;24.160;2023-05-09T11:24:47;100340.88;;;11.92;96.60
26531;BME280;14201;43.188;24.160;2023-05-09T11:27:13;100335.25;;;11.84;96.08
26531;BME280;14201;43.188;24.160;2023-05-09T11:29:42;100333.06;;;11.92;98.08
26531;BME280;14201;43.188;24.160;2023-05-09T11:32:08;100337.97;;;12.04;97.63
26531;BME280;14201;43.188;24.160;2023-05-09T11:34:37;100325.59;;;12.17;98.73
26531;BME280;14201;43.188;24.160;2023-05-09T11:37:08;100321.84;;;12.12;97.86
26531;BME280;14201;43.188;24.160;2023-05-09T11:39:35;100322.34;;;12.23;99.14
26531;BME280;14201;43.188;24.160;2023-05-09T11:42:19;100321.97;;;12.15;98.29
26531;BME280;14201;43.188;24.160;2023-05-09T11:44:45;100329.16;;;12.01;97.61
26531;BME280;14201;43.188;24.160;2023-05-09T11:47:12;100326.41;;;12.16;99.56
26531;BME280;14201;43.188;24.160;2023-05-09T11:49:41;100316.91;;;12.18;97.46
26531;BME280;14201;43.188;24.160;2023-05-09T11:52:06;100321.88;;;11.94;96.50
26531;BME280;14201;43.188;24.160;2023-05-09T11:54:32;100319.25;;;12.12;98.28
26531;BME280;14201;43.188;24.160;2023-05-09T11:56:57;100321.56;;;12.06;98.35
26531;BME280;14201;43.188;24.160;2023-05-09T11:59:24;100329.75;;;11.96;98.51
26531;BME280;14201;43.188;24.160;2023-05-09T12:01:50;100312.28;;;12.13;98.99
26531;BME280;14201;43.188;24.160;2023-05-09T12:04:15;100318.97;;;12.06;97.52
26531;BME280;14201;43.188;24.160;2023-05-09T12:06:45;100320.97;;;11.94;97.26
26531;BME280;14201;43.188;24.160;2023-05-09T12:09:11;100325.59;;;11.99;100.00
26531;BME280;14201;43.188;24.160;2023-05-09T12:11:36;100312.63;;;12.01;99.55
26531;BME280;14201;43.188;24.160;2023-05-09T12:14:02;100313.56;;;12.03;99.11
26531;BME280;14201;43.188;24.160;2023-05-09T12:16:27;100312.31;;;11.95;98.18
26531;BME280;14201;43.188;24.160;2023-05-09T12:18:53;100300.72;;;12.08;99.51
26531;BME280;14201;43.188;24.160;2023-05-09T12:21:19;100302.88;;;12.16;98.93
26531;BME280;14201;43.188;24.160;2023-05-09T12:23:46;100306.31;;;12.15;100.00
26531;BME280;14201;43.188;24.160;2023-05-09T12:26:11;100311.56;;;11.97;99.63
26531;BME280;14201;43.188;24.160;2023-05-09T12:28:37;100303.97;;;12.02;99.92
26531;BME280;14201;43.188;24.160;2023-05-09T12:31:04;100296.63;;;12.13;100.00
26531;BME280;14201;43.188;24.160;2023-05-09T12:33:30;100305.72;;;12.21;99.61
26531;BME280;14201;43.188;24.160;2023-05-09T12:36:33;100302.88;;;12.16;100.00
26531;BME280;14201;43.188;24.160;2023-05-09T12:38:55;100290.00;;;12.01;99.58
26531;BME280;14201;43.188;24.160;2023-05-09T12:41:20;100295.75;;;12.12;98.88
26531;BME280;14201;43.188;24.160;2023-05-09T12:43:47;100289.16;;;12.20;99.42
26531;BME280;14201;43.188;24.160;2023-05-09T12:46:16;100291.91;;;12.24;98.45
26531;BME280;14201;43.188;24.160;2023-05-09T12:48:42;100288.63;;;12.47;98.67
26531;BME280;14201;43.188;24.160;2023-05-09T12:51:08;100284.22;;;12.46;98.54
26531;BME280;14201;43.188;24.160;2023-05-09T12:53:39;100279.06;;;12.48;99.53
26531;BME280;14201;43.188;24.160;2023-05-09T12:56:12;100291.09;;;12.44;97.57
26531;BME280;14201;43.188;24.160;2023-05-09T12:58:39;100286.22;;;12.52;98.95
26531;BME280;14201;43.188;24.160;2023-05-09T13:01:11;100282.28;;;12.42;96.59